Location Glendale, AZ, US

ob KWR6634 151430Z AUTO 10000KT SKC 08/M04 A3011 RMK SLPNO 

2018.11.15 1430 UTC
Wind from the E (103 degrees) at Calm MPH ( KT) gusting to 0.0 MPH (0 KT)
Visibility    Mile(s)
Sky Conditions  clear
Temperature 45.50 F (8 C)
Dew Point 25.41 F (-4 C)
Relative Humidity 45%
Pressure   30.11 in. Hg (1020 hPa)
Rain  0.00 in.
Daily Rain  in.

Station Name  My Glendale Arizona Weather Station
Longitude, Latitude  -112.20133199999998, 33.58645
Elevation 1180
Station URL www.myglendalewxs.com
Software Type VWS V15.00